sensor_id;sensor_type;location;lat;lon;timestamp;P1;durP1;ratioP1;P2;durP2;ratioP2
36137;SDS011;22194;50.046;21.954;2022-08-21T00:02:02;29.60;;;12.50;;
36137;SDS011;22194;50.046;21.954;2022-08-21T00:04:31;25.60;;;13.40;;
36137;SDS011;22194;50.046;21.954;2022-08-21T00:06:59;27.70;;;14.10;;
36137;SDS011;22194;50.046;21.954;2022-08-21T00:09:27;25.40;;;13.60;;
36137;SDS011;22194;50.046;21.954;2022-08-21T00:11:55;23.70;;;14.00;;
36137;SDS011;22194;50.046;21.954;2022-08-21T00:14:24;25.40;;;13.30;;
36137;SDS011;22194;50.046;21.954;2022-08-21T00:16:57;29.10;;;15.40;;
36137;SDS011;22194;50.046;21.954;2022-08-21T00:19:27;26.60;;;13.70;;
36137;SDS011;22194;50.046;21.954;2022-08-21T00:21:56;26.20;;;14.10;;
36137;SDS011;22194;50.046;21.954;2022-08-21T00:24:25;29.60;;;14.20;;
36137;SDS011;22194;50.046;21.954;2022-08-21T00:26:54;24.00;;;13.30;;
36137;SDS011;22194;50.046;21.954;2022-08-21T00:29:23;24.20;;;13.60;;
36137;SDS011;22194;50.046;21.954;2022-08-21T00:31:52;25.40;;;15.00;;
36137;SDS011;22194;50.046;21.954;2022-08-21T00:34:21;25.40;;;14.50;;
36137;SDS011;22194;50.046;21.954;2022-08-21T00:36:49;24.70;;;14.00;;
36137;SDS011;22194;50.046;21.954;2022-08-21T00:39:18;24.30;;;14.40;;
36137;SDS011;22194;50.046;21.954;2022-08-21T00:41:46;27.00;;;14.50;;
36137;SDS011;22194;50.046;21.954;2022-08-21T00:44:16;24.90;;;14.30;;
36137;SDS011;22194;50.046;21.954;2022-08-21T00:46:45;26.30;;;14.30;;
36137;SDS011;22194;50.046;21.954;2022-08-21T00:49:14;26.10;;;13.10;;
36137;SDS011;22194;50.046;21.954;2022-08-21T00:51:47;28.70;;;13.80;;
36137;SDS011;22194;50.046;21.954;2022-08-21T00:54:20;28.50;;;13.90;;
36137;SDS011;22194;50.046;21.954;2022-08-21T00:59:26;24.50;;;12.90;;
36137;SDS011;22194;50.046;21.954;2022-08-21T01:01:57;25.20;;;13.30;;
36137;SDS011;22194;50.046;21.954;2022-08-21T01:04:26;28.30;;;15.00;;
36137;SDS011;22194;50.046;21.954;2022-08-21T01:06:54;24.90;;;13.10;;
36137;SDS011;22194;50.046;21.954;2022-08-21T01:09:23;22.40;;;12.70;;
36137;SDS011;22194;50.046;21.954;2022-08-21T01:11:51;26.70;;;14.90;;
36137;SDS011;22194;50.046;21.954;2022-08-21T01:14:20;27.20;;;13.80;;
36137;SDS011;22194;50.046;21.954;2022-08-21T01:16:50;29.10;;;14.10;;
36137;SDS011;22194;50.046;21.954;2022-08-21T01:19:21;25.10;;;13.30;;
36137;SDS011;22194;50.046;21.954;2022-08-21T01:21:52;24.30;;;13.00;;
36137;SDS011;22194;50.046;21.954;2022-08-21T01:24:21;25.70;;;13.10;;
36137;SDS011;22194;50.046;21.954;2022-08-21T01:26:50;25.20;;;13.10;;
36137;SDS011;22194;50.046;21.954;2022-08-21T01:32:12;23.70;;;12.60;;
36137;SDS011;22194;50.046;21.954;2022-08-21T01:34:44;25.30;;;13.50;;
36137;SDS011;22194;50.046;21.954;2022-08-21T01:37:15;21.10;;;12.40;;
36137;SDS011;22194;50.046;21.954;2022-08-21T01:39:44;25.40;;;13.60;;
36137;SDS011;22194;50.046;21.954;2022-08-21T01:42:13;25.10;;;13.70;;
36137;SDS011;22194;50.046;21.954;2022-08-21T01:44:41;25.60;;;13.60;;
36137;SDS011;22194;50.046;21.954;2022-08-21T01:47:12;24.60;;;13.90;;
36137;SDS011;22194;50.046;21.954;2022-08-21T01:49:44;23.30;;;13.60;;
36137;SDS011;22194;50.046;21.954;2022-08-21T01:52:13;25.90;;;13.20;;
36137;SDS011;22194;50.046;21.954;2022-08-21T01:54:41;26.30;;;13.90;;
36137;SDS011;22194;50.046;21.954;2022-08-21T01:57:11;24.50;;;13.40;;
36137;SDS011;22194;50.046;21.954;2022-08-21T01:59:41;22.10;;;13.10;;
36137;SDS011;22194;50.046;21.954;2022-08-21T02:02:09;24.10;;;14.00;;
36137;SDS011;22194;50.046;21.954;2022-08-21T02:04:38;27.60;;;13.50;;
36137;SDS011;22194;50.046;21.954;2022-08-21T02:07:07;26.10;;;14.20;;
36137;SDS011;22194;50.046;21.954;2022-08-21T02:09:37;24.30;;;13.20;;
36137;SDS011;22194;50.046;21.954;2022-08-21T02:12:07;24.30;;;13.30;;
36137;SDS011;22194;50.046;21.954;2022-08-21T02:14:35;23.60;;;13.40;;
36137;SDS011;22194;50.046;21.954;2022-08-21T02:17:04;26.20;;;13.10;;
36137;SDS011;22194;50.046;21.954;2022-08-21T02:19:37;25.30;;;14.40;;
36137;SDS011;22194;50.046;21.954;2022-08-21T02:22:08;23.80;;;13.30;;
36137;SDS011;22194;50.046;21.954;2022-08-21T02:24:38;23.40;;;14.00;;
36137;SDS011;22194;50.046;21.954;2022-08-21T02:27:23;27.60;;;14.20;;
36137;SDS011;22194;50.046;21.954;2022-08-21T02:29:55;27.70;;;14.00;;
36137;SDS011;22194;50.046;21.954;2022-08-21T02:32:25;25.00;;;14.20;;
36137;SDS011;22194;50.046;21.954;2022-08-21T02:34:54;24.40;;;14.10;;
36137;SDS011;22194;50.046;21.954;2022-08-21T02:37:23;23.90;;;13.60;;
36137;SDS011;22194;50.046;21.954;2022-08-21T02:39:52;26.60;;;14.90;;
36137;SDS011;22194;50.046;21.954;2022-08-21T02:42:20;33.60;;;14.70;;
36137;SDS011;22194;50.046;21.954;2022-08-21T02:44:49;26.70;;;14.80;;
36137;SDS011;22194;50.046;21.954;2022-08-21T02:47:18;28.00;;;13.60;;
36137;SDS011;22194;50.046;21.954;2022-08-21T02:49:46;24.50;;;13.90;;
36137;SDS011;22194;50.046;21.954;2022-08-21T02:52:15;24.50;;;13.80;;
36137;SDS011;22194;50.046;21.954;2022-08-21T02:54:43;26.00;;;14.50;;
36137;SDS011;22194;50.046;21.954;2022-08-21T02:57:11;28.70;;;14.60;;
36137;SDS011;22194;50.046;21.954;2022-08-21T02:59:40;24.60;;;13.10;;
36137;SDS011;22194;50.046;21.954;2022-08-21T03:02:08;25.30;;;14.50;;
36137;SDS011;22194;50.046;21.954;2022-08-21T03:04:37;25.70;;;14.70;;
36137;SDS011;22194;50.046;21.954;2022-08-21T03:07:10;25.40;;;13.40;;
36137;SDS011;22194;50.046;21.954;2022-08-21T03:09:38;24.90;;;13.30;;
36137;SDS011;22194;50.046;21.954;2022-08-21T03:12:22;24.10;;;13.20;;
36137;SDS011;22194;50.046;21.954;2022-08-21T03:14:57;23.20;;;12.70;;
36137;SDS011;22194;50.046;21.954;2022-08-21T03:17:25;23.70;;;12.60;;
36137;SDS011;22194;50.046;21.954;2022-08-21T03:19:57;23.60;;;13.00;;
36137;SDS011;22194;50.046;21.954;2022-08-21T03:22:26;22.70;;;12.80;;
36137;SDS011;22194;50.046;21.954;2022-08-21T03:24:58;25.10;;;12.40;;
36137;SDS011;22194;50.046;21.954;2022-08-21T03:27:33;24.60;;;12.70;;
36137;SDS011;22194;50.046;21.954;2022-08-21T03:30:05;25.40;;;13.60;;
36137;SDS011;22194;50.046;21.954;2022-08-21T03:32:35;29.10;;;12.60;;
36137;SDS011;22194;50.046;21.954;2022-08-21T03:35:04;25.10;;;13.90;;
36137;SDS011;22194;50.046;21.954;2022-08-21T03:37:33;27.80;;;14.30;;
36137;SDS011;22194;50.046;21.954;2022-08-21T03:40:05;22.80;;;13.60;;
36137;SDS011;22194;50.046;21.954;2022-08-21T03:45:03;25.60;;;13.40;;
36137;SDS011;22194;50.046;21.954;2022-08-21T03:47:33;26.20;;;14.00;;
36137;SDS011;22194;50.046;21.954;2022-08-21T03:50:02;28.10;;;13.80;;
36137;SDS011;22194;50.046;21.954;2022-08-21T03:52:31;28.90;;;13.80;;
36137;SDS011;22194;50.046;21.954;2022-08-21T03:54:59;27.10;;;14.10;;
36137;SDS011;22194;50.046;21.954;2022-08-21T03:57:27;26.00;;;13.20;;
36137;SDS011;22194;50.046;21.954;2022-08-21T03:59:55;25.10;;;13.90;;
36137;SDS011;22194;50.046;21.954;2022-08-21T04:02:23;25.70;;;13.40;;
36137;SDS011;22194;50.046;21.954;2022-08-21T04:04:51;24.00;;;13.30;;
36137;SDS011;22194;50.046;21.954;2022-08-21T04:07:19;22.00;;;13.00;;
36137;SDS011;22194;50.046;21.954;2022-08-21T04:09:47;22.40;;;13.50;;
36137;SDS011;22194;50.046;21.954;2022-08-21T04:12:14;23.70;;;13.80;;
36137;SDS011;22194;50.046;21.954;2022-08-21T04:14:42;25.70;;;14.00;;
36137;SDS011;22194;50.046;21.954;2022-08-21T04:17:10;25.30;;;14.00;;
36137;SDS011;22194;50.046;21.954;2022-08-21T04:19:38;21.10;;;13.10;;
36137;SDS011;22194;50.046;21.954;2022-08-21T04:22:06;22.00;;;13.00;;
36137;SDS011;22194;50.046;21.954;2022-08-21T04:24:34;22.60;;;12.20;;
36137;SDS011;22194;50.046;21.954;2022-08-21T04:27:02;21.80;;;12.90;;
36137;SDS011;22194;50.046;21.954;2022-08-21T04:29:30;24.30;;;12.80;;
36137;SDS011;22194;50.046;21.954;2022-08-21T04:32:01;21.90;;;13.40;;
36137;SDS011;22194;50.046;21.954;2022-08-21T04:34:29;23.10;;;13.40;;
36137;SDS011;22194;50.046;21.954;2022-08-21T04:36:56;24.60;;;13.80;;
36137;SDS011;22194;50.046;21.954;2022-08-21T04:39:25;28.30;;;13.80;;
36137;SDS011;22194;50.046;21.954;2022-08-21T04:41:56;21.80;;;13.00;;
36137;SDS011;22194;50.046;21.954;2022-08-21T04:44:24;26.00;;;13.70;;
36137;SDS011;22194;50.046;21.954;2022-08-21T04:46:52;23.00;;;13.10;;
36137;SDS011;22194;50.046;21.954;2022-08-21T04:49:20;24.80;;;14.20;;
36137;SDS011;22194;50.046;21.954;2022-08-21T04:51:48;21.60;;;13.50;;
36137;SDS011;22194;50.046;21.954;2022-08-21T04:54:18;24.10;;;12.80;;
36137;SDS011;22194;50.046;21.954;2022-08-21T04:56:51;22.60;;;13.00;;
36137;SDS011;22194;50.046;21.954;2022-08-21T04:59:22;23.90;;;13.00;;
36137;SDS011;22194;50.046;21.954;2022-08-21T05:01:59;22.50;;;12.60;;
36137;SDS011;22194;50.046;21.954;2022-08-21T05:04:30;22.10;;;12.50;;
36137;SDS011;22194;50.046;21.954;2022-08-21T05:07:02;26.70;;;14.10;;
36137;SDS011;22194;50.046;21.954;2022-08-21T05:09:33;20.90;;;11.50;;
36137;SDS011;22194;50.046;21.954;2022-08-21T05:12:04;21.10;;;12.50;;
36137;SDS011;22194;50.046;21.954;2022-08-21T05:14:33;23.50;;;12.10;;
36137;SDS011;22194;50.046;21.954;2022-08-21T05:17:00;25.20;;;11.80;;
36137;SDS011;22194;50.046;21.954;2022-08-21T05:19:28;22.90;;;12.40;;
36137;SDS011;22194;50.046;21.954;2022-08-21T05:21:56;20.50;;;10.80;;
36137;SDS011;22194;50.046;21.954;2022-08-21T05:24:25;21.60;;;11.20;;
36137;SDS011;22194;50.046;21.954;2022-08-21T05:26:53;22.40;;;10.40;;
36137;SDS011;22194;50.046;21.954;2022-08-21T05:29:21;28.30;;;10.60;;
36137;SDS011;22194;50.046;21.954;2022-08-21T05:31:50;19.50;;;10.10;;
36137;SDS011;22194;50.046;21.954;2022-08-21T05:34:20;18.70;;;10.00;;
36137;SDS011;22194;50.046;21.954;2022-08-21T05:36:51;20.10;;;9.60;;
36137;SDS011;22194;50.046;21.954;2022-08-21T05:39:19;20.30;;;9.50;;
36137;SDS011;22194;50.046;21.954;2022-08-21T05:41:46;21.20;;;10.00;;
36137;SDS011;22194;50.046;21.954;2022-08-21T05:44:15;21.50;;;9.80;;
36137;SDS011;22194;50.046;21.954;2022-08-21T05:46:43;20.00;;;9.60;;
36137;SDS011;22194;50.046;21.954;2022-08-21T05:49:11;23.40;;;10.60;;
36137;SDS011;22194;50.046;21.954;2022-08-21T05:51:40;18.10;;;9.60;;
36137;SDS011;22194;50.046;21.954;2022-08-21T05:54:09;17.10;;;9.50;;
36137;SDS011;22194;50.046;21.954;2022-08-21T05:56:38;19.80;;;10.40;;
36137;SDS011;22194;50.046;21.954;2022-08-21T05:59:06;19.10;;;9.50;;
36137;SDS011;22194;50.046;21.954;2022-08-21T06:01:35;18.90;;;9.60;;
36137;SDS011;22194;50.046;21.954;2022-08-21T06:04:03;19.40;;;9.60;;
36137;SDS011;22194;50.046;21.954;2022-08-21T06:06:33;20.00;;;9.30;;
36137;SDS011;22194;50.046;21.954;2022-08-21T06:09:02;21.10;;;9.10;;
36137;SDS011;22194;50.046;21.954;2022-08-21T06:11:31;19.60;;;9.70;;
36137;SDS011;22194;50.046;21.954;2022-08-21T06:13:59;20.60;;;9.30;;
36137;SDS011;22194;50.046;21.954;2022-08-21T06:16:28;16.90;;;8.40;;
36137;SDS011;22194;50.046;21.954;2022-08-21T06:18:57;19.00;;;9.20;;
36137;SDS011;22194;50.046;21.954;2022-08-21T06:21:29;21.20;;;9.80;;
36137;SDS011;22194;50.046;21.954;2022-08-21T06:23:57;19.20;;;8.70;;
36137;SDS011;22194;50.046;21.954;2022-08-21T06:26:26;19.50;;;9.30;;
36137;SDS011;22194;50.046;21.954;2022-08-21T06:28:56;19.90;;;8.90;;
36137;SDS011;22194;50.046;21.954;2022-08-21T06:31:26;21.30;;;9.50;;
36137;SDS011;22194;50.046;21.954;2022-08-21T06:33:56;21.90;;;9.20;;
36137;SDS011;22194;50.046;21.954;2022-08-21T06:36:25;18.70;;;8.80;;
36137;SDS011;22194;50.046;21.954;2022-08-21T06:38:53;26.20;;;10.30;;
36137;SDS011;22194;50.046;21.954;2022-08-21T06:41:24;20.20;;;9.50;;
36137;SDS011;22194;50.046;21.954;2022-08-21T06:43:55;21.40;;;9.30;;
36137;SDS011;22194;50.046;21.954;2022-08-21T06:46:25;27.20;;;8.90;;
36137;SDS011;22194;50.046;21.954;2022-08-21T06:48:57;18.50;;;8.70;;
36137;SDS011;22194;50.046;21.954;2022-08-21T06:51:26;21.10;;;9.10;;
36137;SDS011;22194;50.046;21.954;2022-08-21T06:53:56;21.70;;;9.50;;
36137;SDS011;22194;50.046;21.954;2022-08-21T06:56:26;24.10;;;10.10;;
36137;SDS011;22194;50.046;21.954;2022-08-21T06:58:54;18.60;;;8.60;;
36137;SDS011;22194;50.046;21.954;2022-08-21T07:01:25;19.80;;;9.30;;
36137;SDS011;22194;50.046;21.954;2022-08-21T07:03:55;30.00;;;11.20;;
36137;SDS011;22194;50.046;21.954;2022-08-21T07:06:23;25.70;;;9.80;;
36137;SDS011;22194;50.046;21.954;2022-08-21T07:08:52;20.20;;;9.10;;
36137;SDS011;22194;50.046;21.954;2022-08-21T07:11:25;18.30;;;8.20;;
36137;SDS011;22194;50.046;21.954;2022-08-21T07:13:53;21.20;;;8.90;;
36137;SDS011;22194;50.046;21.954;2022-08-21T07:16:24;17.10;;;8.90;;
36137;SDS011;22194;50.046;21.954;2022-08-21T07:18:52;20.70;;;8.60;;
36137;SDS011;22194;50.046;21.954;2022-08-21T07:21:20;17.90;;;8.00;;
36137;SDS011;22194;50.046;21.954;2022-08-21T07:23:53;17.20;;;8.30;;
36137;SDS011;22194;50.046;21.954;2022-08-21T07:26:22;21.10;;;8.60;;
36137;SDS011;22194;50.046;21.954;2022-08-21T07:28:52;18.40;;;7.70;;
36137;SDS011;22194;50.046;21.954;2022-08-21T07:31:23;23.90;;;7.70;;
36137;SDS011;22194;50.046;21.954;2022-08-21T07:33:53;15.40;;;7.20;;
36137;SDS011;22194;50.046;21.954;2022-08-21T07:36:21;19.00;;;7.60;;
36137;SDS011;22194;50.046;21.954;2022-08-21T07:38:51;15.30;;;6.60;;
36137;SDS011;22194;50.046;21.954;2022-08-21T07:41:24;15.90;;;6.90;;
36137;SDS011;22194;50.046;21.954;2022-08-21T07:43:58;13.00;;;6.50;;
36137;SDS011;22194;50.046;21.954;2022-08-21T07:46:27;14.10;;;6.40;;
36137;SDS011;22194;50.046;21.954;2022-08-21T07:48:56;13.60;;;6.40;;
36137;SDS011;22194;50.046;21.954;2022-08-21T07:51:26;18.60;;;7.30;;
36137;SDS011;22194;50.046;21.954;2022-08-21T07:53:57;15.00;;;6.50;;
36137;SDS011;22194;50.046;21.954;2022-08-21T07:56:28;16.00;;;6.70;;
36137;SDS011;22194;50.046;21.954;2022-08-21T07:58:59;13.40;;;6.70;;
36137;SDS011;22194;50.046;21.954;2022-08-21T08:01:27;14.80;;;6.80;;
36137;SDS011;22194;50.046;21.954;2022-08-21T08:03:55;16.20;;;6.30;;
36137;SDS011;22194;50.046;21.954;2022-08-21T08:06:24;12.30;;;6.00;;
36137;SDS011;22194;50.046;21.954;2022-08-21T08:08:53;14.90;;;6.10;;
36137;SDS011;22194;50.046;21.954;2022-08-21T08:11:22;15.20;;;6.00;;
36137;SDS011;22194;50.046;21.954;2022-08-21T08:13:51;17.70;;;6.20;;
36137;SDS011;22194;50.046;21.954;2022-08-21T08:16:19;12.10;;;5.90;;
36137;SDS011;22194;50.046;21.954;2022-08-21T08:18:48;12.00;;;6.10;;
36137;SDS011;22194;50.046;21.954;2022-08-21T08:21:18;12.90;;;5.60;;
36137;SDS011;22194;50.046;21.954;2022-08-21T08:23:48;12.60;;;5.40;;
36137;SDS011;22194;50.046;21.954;2022-08-21T08:26:17;14.30;;;6.20;;
36137;SDS011;22194;50.046;21.954;2022-08-21T08:28:46;14.80;;;6.00;;
36137;SDS011;22194;50.046;21.954;2022-08-21T08:31:15;15.00;;;5.60;;
36137;SDS011;22194;50.046;21.954;2022-08-21T08:33:43;15.80;;;6.50;;
36137;SDS011;22194;50.046;21.954;2022-08-21T08:36:12;13.80;;;5.70;;
36137;SDS011;22194;50.046;21.954;2022-08-21T08:38:42;15.60;;;6.00;;
36137;SDS011;22194;50.046;21.954;2022-08-21T08:43:43;16.50;;;5.80;;
36137;SDS011;22194;50.046;21.954;2022-08-21T08:47:03;19.40;;;6.30;;
36137;SDS011;22194;50.046;21.954;2022-08-21T08:49:19;13.50;;;5.90;;
36137;SDS011;22194;50.046;21.954;2022-08-21T08:52:04;16.20;;;6.10;;
36137;SDS011;22194;50.046;21.954;2022-08-21T08:55:15;16.90;;;7.10;;
36137;SDS011;22194;50.046;21.954;2022-08-21T08:57:54;17.10;;;6.80;;
36137;SDS011;22194;50.046;21.954;2022-08-21T09:00:24;18.40;;;7.30;;
36137;SDS011;22194;50.046;21.954;2022-08-21T09:02:54;15.50;;;6.30;;
36137;SDS011;22194;50.046;21.954;2022-08-21T09:05:30;13.30;;;6.40;;
36137;SDS011;22194;50.046;21.954;2022-08-21T09:08:15;15.20;;;6.70;;
36137;SDS011;22194;50.046;21.954;2022-08-21T09:22:06;17.40;;;7.20;;
36137;SDS011;22194;50.046;21.954;2022-08-21T09:24:53;14.60;;;6.50;;
36137;SDS011;22194;50.046;21.954;2022-08-21T09:27:39;20.90;;;6.80;;
36137;SDS011;22194;50.046;21.954;2022-08-21T09:30:07;17.80;;;6.60;;
36137;SDS011;22194;50.046;21.954;2022-08-21T09:32:38;16.40;;;6.50;;
36137;SDS011;22194;50.046;21.954;2022-08-21T09:35:10;24.40;;;8.30;;
36137;SDS011;22194;50.046;21.954;2022-08-21T09:37:55;16.50;;;7.00;;
36137;SDS011;22194;50.046;21.954;2022-08-21T09:40:39;18.90;;;6.60;;
36137;SDS011;22194;50.046;21.954;2022-08-21T09:45:41;14.50;;;6.40;;
36137;SDS011;22194;50.046;21.954;2022-08-21T09:50:43;15.50;;;6.20;;
36137;SDS011;22194;50.046;21.954;2022-08-21T09:53:21;14.20;;;6.10;;
36137;SDS011;22194;50.046;21.954;2022-08-21T09:55:59;23.90;;;8.10;;
36137;SDS011;22194;50.046;21.954;2022-08-21T09:58:51;56.60;;;16.30;;
36137;SDS011;22194;50.046;21.954;2022-08-21T10:01:21;35.00;;;11.80;;
36137;SDS011;22194;50.046;21.954;2022-08-21T10:04:04;27.60;;;9.70;;
36137;SDS011;22194;50.046;21.954;2022-08-21T10:06:35;25.70;;;8.90;;
36137;SDS011;22194;50.046;21.954;2022-08-21T10:11:32;14.00;;;5.90;;
36137;SDS011;22194;50.046;21.954;2022-08-21T10:14:08;18.20;;;6.30;;
36137;SDS011;22194;50.046;21.954;2022-08-21T10:16:56;17.20;;;5.60;;
36137;SDS011;22194;50.046;21.954;2022-08-21T10:19:51;15.40;;;6.00;;
36137;SDS011;22194;50.046;21.954;2022-08-21T10:22:47;15.80;;;5.60;;
36137;SDS011;22194;50.046;21.954;2022-08-21T10:28:33;16.00;;;6.10;;
36137;SDS011;22194;50.046;21.954;2022-08-21T10:31:28;13.60;;;6.40;;
36137;SDS011;22194;50.046;21.954;2022-08-21T10:36:46;14.10;;;6.10;;
36137;SDS011;22194;50.046;21.954;2022-08-21T10:47:52;16.60;;;6.50;;
36137;SDS011;22194;50.046;21.954;2022-08-21T10:50:34;15.60;;;5.50;;
36137;SDS011;22194;50.046;21.954;2022-08-21T10:56:47;13.20;;;5.30;;
36137;SDS011;22194;50.046;21.954;2022-08-21T10:59:04;15.10;;;5.40;;
36137;SDS011;22194;50.046;21.954;2022-08-21T11:04:37;12.50;;;5.50;;
36137;SDS011;22194;50.046;21.954;2022-08-21T11:07:22;13.10;;;5.40;;
36137;SDS011;22194;50.046;21.954;2022-08-21T11:09:59;17.40;;;5.70;;
36137;SDS011;22194;50.046;21.954;2022-08-21T11:12:39;18.30;;;5.70;;
36137;SDS011;22194;50.046;21.954;2022-08-21T11:18:26;10.00;;;5.20;;
36137;SDS011;22194;50.046;21.954;2022-08-21T11:21:13;15.80;;;5.50;;
36137;SDS011;22194;50.046;21.954;2022-08-21T11:23:54;13.30;;;5.50;;
36137;SDS011;22194;50.046;21.954;2022-08-21T11:26:28;13.50;;;5.20;;
36137;SDS011;22194;50.046;21.954;2022-08-21T11:29:04;17.30;;;6.30;;
36137;SDS011;22194;50.046;21.954;2022-08-21T11:35:07;15.30;;;5.90;;
36137;SDS011;22194;50.046;21.954;2022-08-21T11:37:55;15.50;;;5.90;;
36137;SDS011;22194;50.046;21.954;2022-08-21T11:51:34;15.50;;;6.40;;
36137;SDS011;22194;50.046;21.954;2022-08-21T11:54:27;18.50;;;5.80;;
36137;SDS011;22194;50.046;21.954;2022-08-21T11:57:03;22.70;;;6.20;;
36137;SDS011;22194;50.046;21.954;2022-08-21T11:59:39;13.50;;;5.60;;
36137;SDS011;22194;50.046;21.954;2022-08-21T12:02:13;14.30;;;5.60;;
36137;SDS011;22194;50.046;21.954;2022-08-21T12:04:50;16.50;;;5.60;;
36137;SDS011;22194;50.046;21.954;2022-08-21T12:10:01;15.10;;;5.90;;
36137;SDS011;22194;50.046;21.954;2022-08-21T12:12:36;15.30;;;5.90;;
36137;SDS011;22194;50.046;21.954;2022-08-21T12:18:03;16.70;;;6.10;;
36137;SDS011;22194;50.046;21.954;2022-08-21T12:20:36;14.70;;;5.80;;
36137;SDS011;22194;50.046;21.954;2022-08-21T12:23:18;14.50;;;6.30;;
36137;SDS011;22194;50.046;21.954;2022-08-21T12:26:03;12.10;;;5.60;;
36137;SDS011;22194;50.046;21.954;2022-08-21T12:28:41;13.50;;;6.10;;
36137;SDS011;22194;50.046;21.954;2022-08-21T12:31:19;13.00;;;5.50;;
36137;SDS011;22194;50.046;21.954;2022-08-21T12:33:55;15.80;;;6.10;;
36137;SDS011;22194;50.046;21.954;2022-08-21T12:36:39;11.10;;;6.10;;
36137;SDS011;22194;50.046;21.954;2022-08-21T12:39:24;13.90;;;5.90;;
36137;SDS011;22194;50.046;21.954;2022-08-21T12:44:55;15.40;;;6.40;;
36137;SDS011;22194;50.046;21.954;2022-08-21T12:47:33;15.30;;;5.60;;
36137;SDS011;22194;50.046;21.954;2022-08-21T12:50:13;13.20;;;5.70;;
36137;SDS011;22194;50.046;21.954;2022-08-21T12:52:51;13.20;;;5.70;;
36137;SDS011;22194;50.046;21.954;2022-08-21T12:55:28;10.90;;;5.30;;
36137;SDS011;22194;50.046;21.954;2022-08-21T12:58:01;14.70;;;5.30;;
36137;SDS011;22194;50.046;21.954;2022-08-21T13:00:30;12.70;;;5.10;;
36137;SDS011;22194;50.046;21.954;2022-08-21T13:02:58;15.60;;;5.80;;
36137;SDS011;22194;50.046;21.954;2022-08-21T13:05:33;20.90;;;6.20;;
36137;SDS011;22194;50.046;21.954;2022-08-21T13:08:04;20.10;;;6.30;;
36137;SDS011;22194;50.046;21.954;2022-08-21T13:10:35;14.90;;;6.10;;
36137;SDS011;22194;50.046;21.954;2022-08-21T13:13:06;15.60;;;6.30;;
36137;SDS011;22194;50.046;21.954;2022-08-21T13:15:56;18.40;;;6.20;;
36137;SDS011;22194;50.046;21.954;2022-08-21T13:18:27;14.70;;;5.70;;
36137;SDS011;22194;50.046;21.954;2022-08-21T13:21:04;15.80;;;6.10;;
36137;SDS011;22194;50.046;21.954;2022-08-21T13:23:39;11.70;;;5.80;;
36137;SDS011;22194;50.046;21.954;2022-08-21T13:26:15;14.20;;;6.00;;
36137;SDS011;22194;50.046;21.954;2022-08-21T13:28:47;14.80;;;6.20;;
36137;SDS011;22194;50.046;21.954;2022-08-21T13:31:18;14.90;;;6.10;;
36137;SDS011;22194;50.046;21.954;2022-08-21T13:33:53;14.70;;;6.00;;
36137;SDS011;22194;50.046;21.954;2022-08-21T13:36:32;14.60;;;5.80;;
36137;SDS011;22194;50.046;21.954;2022-08-21T13:39:05;13.30;;;6.10;;
36137;SDS011;22194;50.046;21.954;2022-08-21T13:41:37;14.20;;;5.90;;
36137;SDS011;22194;50.046;21.954;2022-08-21T13:44:17;10.40;;;5.50;;
36137;SDS011;22194;50.046;21.954;2022-08-21T13:46:48;15.40;;;5.90;;
36137;SDS011;22194;50.046;21.954;2022-08-21T13:49:19;15.70;;;6.30;;
36137;SDS011;22194;50.046;21.954;2022-08-21T13:51:55;15.30;;;5.80;;
36137;SDS011;22194;50.046;21.954;2022-08-21T13:54:26;17.70;;;6.00;;
36137;SDS011;22194;50.046;21.954;2022-08-21T13:56:57;15.10;;;6.10;;
36137;SDS011;22194;50.046;21.954;2022-08-21T13:59:33;11.30;;;5.70;;
36137;SDS011;22194;50.046;21.954;2022-08-21T14:04:50;14.00;;;6.10;;
36137;SDS011;22194;50.046;21.954;2022-08-21T14:07:31;15.60;;;6.20;;
36137;SDS011;22194;50.046;21.954;2022-08-21T14:10:11;13.70;;;6.10;;
36137;SDS011;22194;50.046;21.954;2022-08-21T14:12:48;15.40;;;6.10;;
36137;SDS011;22194;50.046;21.954;2022-08-21T14:15:25;13.00;;;6.30;;
36137;SDS011;22194;50.046;21.954;2022-08-21T14:18:14;15.70;;;6.80;;
36137;SDS011;22194;50.046;21.954;2022-08-21T14:20:45;15.50;;;6.20;;
36137;SDS011;22194;50.046;21.954;2022-08-21T14:23:27;15.90;;;6.20;;
36137;SDS011;22194;50.046;21.954;2022-08-21T14:26:01;14.80;;;6.40;;
36137;SDS011;22194;50.046;21.954;2022-08-21T14:28:34;15.60;;;6.50;;
36137;SDS011;22194;50.046;21.954;2022-08-21T14:31:16;14.90;;;6.30;;
36137;SDS011;22194;50.046;21.954;2022-08-21T14:33:49;13.10;;;6.00;;
36137;SDS011;22194;50.046;21.954;2022-08-21T14:36:17;13.60;;;6.60;;
36137;SDS011;22194;50.046;21.954;2022-08-21T14:38:46;14.20;;;6.10;;
36137;SDS011;22194;50.046;21.954;2022-08-21T14:41:16;10.60;;;5.80;;
36137;SDS011;22194;50.046;21.954;2022-08-21T14:43:52;15.40;;;6.30;;
36137;SDS011;22194;50.046;21.954;2022-08-21T14:46:37;12.20;;;5.60;;
36137;SDS011;22194;50.046;21.954;2022-08-21T14:49:25;13.30;;;5.80;;
36137;SDS011;22194;50.046;21.954;2022-08-21T14:51:57;13.90;;;6.40;;
36137;SDS011;22194;50.046;21.954;2022-08-21T14:54:29;12.80;;;6.20;;
36137;SDS011;22194;50.046;21.954;2022-08-21T14:57:00;12.70;;;5.70;;
36137;SDS011;22194;50.046;21.954;2022-08-21T14:59:32;13.40;;;6.10;;
36137;SDS011;22194;50.046;21.954;2022-08-21T15:02:02;11.60;;;5.80;;
36137;SDS011;22194;50.046;21.954;2022-08-21T15:04:33;12.80;;;6.00;;
36137;SDS011;22194;50.046;21.954;2022-08-21T15:07:03;16.00;;;6.10;;
36137;SDS011;22194;50.046;21.954;2022-08-21T15:09:35;14.60;;;6.40;;
36137;SDS011;22194;50.046;21.954;2022-08-21T15:12:03;16.20;;;5.90;;
36137;SDS011;22194;50.046;21.954;2022-08-21T15:14:34;12.60;;;6.20;;
36137;SDS011;22194;50.046;21.954;2022-08-21T15:17:07;14.50;;;6.00;;
36137;SDS011;22194;50.046;21.954;2022-08-21T15:19:38;14.30;;;6.00;;
36137;SDS011;22194;50.046;21.954;2022-08-21T15:22:09;14.90;;;6.20;;
36137;SDS011;22194;50.046;21.954;2022-08-21T15:24:47;16.00;;;6.20;;
36137;SDS011;22194;50.046;21.954;2022-08-21T15:27:16;16.40;;;6.40;;
36137;SDS011;22194;50.046;21.954;2022-08-21T15:29:47;14.00;;;6.20;;
36137;SDS011;22194;50.046;21.954;2022-08-21T15:32:20;18.40;;;6.40;;
36137;SDS011;22194;50.046;21.954;2022-08-21T15:34:51;17.70;;;6.10;;
36137;SDS011;22194;50.046;21.954;2022-08-21T15:37:22;14.90;;;6.30;;
36137;SDS011;22194;50.046;21.954;2022-08-21T15:39:52;14.20;;;5.40;;
36137;SDS011;22194;50.046;21.954;2022-08-21T15:42:23;18.20;;;6.80;;
36137;SDS011;22194;50.046;21.954;2022-08-21T15:44:54;13.50;;;6.20;;
36137;SDS011;22194;50.046;21.954;2022-08-21T15:47:27;14.50;;;6.10;;
36137;SDS011;22194;50.046;21.954;2022-08-21T15:49:58;14.20;;;6.40;;
36137;SDS011;22194;50.046;21.954;2022-08-21T15:52:30;14.70;;;6.20;;
36137;SDS011;22194;50.046;21.954;2022-08-21T15:55:00;12.80;;;6.30;;
36137;SDS011;22194;50.046;21.954;2022-08-21T15:57:29;17.60;;;6.50;;
36137;SDS011;22194;50.046;21.954;2022-08-21T15:59:59;15.00;;;6.20;;
36137;SDS011;22194;50.046;21.954;2022-08-21T16:02:42;21.80;;;6.90;;
36137;SDS011;22194;50.046;21.954;2022-08-21T16:05:16;19.70;;;6.40;;